CCSGM SCPC-SCEL
Flight info
| Callsign | CCSGM |
|---|---|
| Flight time | 1h 8m |
| Altitude | 40000 |
| Route | ENSER UQ802 EROLO EROLO8A |
| Aircraft | C25B/M-SDE2E3FGHRWXY/LB1 |
Departure
| Time | 2026-05-06 17:36 |
|---|---|
| Airport | Pucón Airport (SCPC) |
Arrival
| Time | 2026-05-06 18:44 |
|---|---|
| Airport | Comodoro Arturo Merino Benítez International Airport (SCEL) |
| Time | Latitude | Longitude | Altitude | Speed | Heading |
|---|---|---|---|---|---|
| 2026-05-06 17:29 | -39.29007 | -71.92124 | 884 ft | 0 kts | 281° |
| 2026-05-06 17:31 | -39.29007 | -71.92125 | 884 ft | 1 kts | 281° |
| 2026-05-06 17:31 | -39.29010 | -71.92166 | 884 ft | 6 kts | 216° |
| 2026-05-06 17:32 | -39.29051 | -71.92184 | 883 ft | 7 kts | 192° |
| 2026-05-06 17:32 | -39.29107 | -71.92196 | 882 ft | 10 kts | 169° |
| 2026-05-06 17:32 | -39.29139 | -71.92139 | 882 ft | 8 kts | 104° |
| 2026-05-06 17:32 | -39.29152 | -71.92062 | 883 ft | 11 kts | 101° |
| 2026-05-06 17:33 | -39.29169 | -71.91952 | 883 ft | 14 kts | 101° |
| 2026-05-06 17:33 | -39.29190 | -71.91814 | 884 ft | 16 kts | 102° |
| 2026-05-06 17:33 | -39.29213 | -71.91681 | 885 ft | 14 kts | 102° |
| 2026-05-06 17:33 | -39.29233 | -71.91560 | 886 ft | 14 kts | 102° |
| 2026-05-06 17:34 | -39.29252 | -71.91443 | 886 ft | 13 kts | 102° |
| 2026-05-06 17:34 | -39.29272 | -71.91335 | 887 ft | 12 kts | 113° |
| 2026-05-06 17:34 | -39.29289 | -71.91280 | 887 ft | 3 kts | 81° |
| 2026-05-06 17:34 | -39.29281 | -71.91274 | 887 ft | 0 kts | 342° |
| 2026-05-06 17:35 | -39.29276 | -71.91285 | 887 ft | 2 kts | 281° |
| 2026-05-06 17:35 | -39.29257 | -71.91411 | 886 ft | 54 kts | 281° |
| 2026-05-06 17:35 | -39.29164 | -71.91959 | 883 ft | 133 kts | 283° |
| 2026-05-06 17:36 | -39.28798 | -71.93984 | 1698 ft | 193 kts | 285° |
| 2026-05-06 17:36 | -39.28423 | -71.95808 | 2701 ft | 226 kts | 284° |
| 2026-05-06 17:36 | -39.28083 | -71.97848 | 4078 ft | 231 kts | 282° |
| 2026-05-06 17:36 | -39.27746 | -71.99878 | 5207 ft | 234 kts | 284° |
| 2026-05-06 17:37 | -39.27362 | -72.01920 | 6160 ft | 241 kts | 285° |
| 2026-05-06 17:37 | -39.26583 | -72.03940 | 6586 ft | 266 kts | 313° |
| 2026-05-06 17:37 | -39.24980 | -72.05097 | 7502 ft | 269 kts | 345° |
| 2026-05-06 17:37 | -39.23101 | -72.05319 | 8358 ft | 274 kts | 354° |
| 2026-05-06 17:38 | -39.21213 | -72.05703 | 9192 ft | 276 kts | 348° |
| 2026-05-06 17:38 | -39.19297 | -72.06027 | 10027 ft | 279 kts | 352° |
| 2026-05-06 17:38 | -39.17368 | -72.06285 | 10932 ft | 278 kts | 351° |
| 2026-05-06 17:38 | -39.15446 | -72.06572 | 11803 ft | 278 kts | 350° |
| 2026-05-06 17:39 | -39.13523 | -72.06868 | 12643 ft | 278 kts | 349° |
| 2026-05-06 17:39 | -39.11593 | -72.07165 | 13406 ft | 281 kts | 350° |
| 2026-05-06 17:39 | -39.09666 | -72.07455 | 14106 ft | 285 kts | 350° |
| 2026-05-06 17:39 | -39.07690 | -72.07751 | 14831 ft | 287 kts | 350° |
| 2026-05-06 17:40 | -39.05689 | -72.08056 | 15506 ft | 292 kts | 350° |
| 2026-05-06 17:40 | -39.03663 | -72.08359 | 16195 ft | 295 kts | 350° |
| 2026-05-06 17:40 | -39.01612 | -72.08674 | 16852 ft | 298 kts | 350° |
| 2026-05-06 17:40 | -38.99542 | -72.08977 | 17513 ft | 301 kts | 350° |
| 2026-05-06 17:41 | -38.97453 | -72.09299 | 18146 ft | 304 kts | 351° |
| 2026-05-06 17:41 | -38.95343 | -72.09617 | 18775 ft | 307 kts | 350° |
| 2026-05-06 17:41 | -38.93209 | -72.09933 | 19378 ft | 310 kts | 351° |
| 2026-05-06 17:41 | -38.91054 | -72.10262 | 19963 ft | 314 kts | 350° |
| 2026-05-06 17:42 | -38.89608 | -72.10478 | 20326 ft | 317 kts | 351° |
| 2026-05-06 17:42 | -38.87411 | -72.10804 | 20928 ft | 319 kts | 350° |
| 2026-05-06 17:42 | -38.85191 | -72.11143 | 21471 ft | 323 kts | 350° |
| 2026-05-06 17:42 | -38.82950 | -72.11475 | 22032 ft | 326 kts | 351° |
| 2026-05-06 17:43 | -38.80688 | -72.11816 | 22569 ft | 329 kts | 350° |
| 2026-05-06 17:43 | -38.78401 | -72.12162 | 23096 ft | 333 kts | 351° |
| 2026-05-06 17:43 | -38.76091 | -72.12504 | 23595 ft | 336 kts | 351° |
| 2026-05-06 17:43 | -38.73759 | -72.12853 | 24102 ft | 339 kts | 350° |
| 2026-05-06 17:44 | -38.71407 | -72.13206 | 24605 ft | 341 kts | 351° |
| 2026-05-06 17:44 | -38.69046 | -72.13556 | 25187 ft | 341 kts | 351° |
| 2026-05-06 17:44 | -38.66695 | -72.13910 | 25866 ft | 338 kts | 351° |
| 2026-05-06 17:44 | -38.64366 | -72.14253 | 26519 ft | 336 kts | 351° |
| 2026-05-06 17:45 | -38.62051 | -72.14605 | 27184 ft | 334 kts | 350° |
| 2026-05-06 17:45 | -38.59746 | -72.14944 | 27847 ft | 333 kts | 351° |
| 2026-05-06 17:45 | -38.57455 | -72.15287 | 28538 ft | 330 kts | 351° |
| 2026-05-06 17:45 | -38.55212 | -72.15620 | 29229 ft | 328 kts | 350° |
| 2026-05-06 17:46 | -38.52950 | -72.15956 | 29918 ft | 326 kts | 351° |
| 2026-05-06 17:46 | -38.50710 | -72.16293 | 30626 ft | 324 kts | 350° |
| 2026-05-06 17:46 | -38.48477 | -72.16622 | 31294 ft | 323 kts | 350° |
| 2026-05-06 17:46 | -38.46242 | -72.16953 | 31904 ft | 323 kts | 350° |
| 2026-05-06 17:47 | -38.44007 | -72.17288 | 32512 ft | 324 kts | 349° |
| 2026-05-06 17:47 | -38.41768 | -72.17618 | 33112 ft | 324 kts | 349° |
| 2026-05-06 17:47 | -38.39529 | -72.17952 | 33691 ft | 324 kts | 349° |
| 2026-05-06 17:47 | -38.37285 | -72.18283 | 34246 ft | 325 kts | 349° |
| 2026-05-06 17:48 | -38.35035 | -72.18616 | 34792 ft | 325 kts | 349° |
| 2026-05-06 17:48 | -38.32785 | -72.18947 | 35306 ft | 327 kts | 349° |
| 2026-05-06 17:48 | -38.30530 | -72.19284 | 35839 ft | 326 kts | 349° |
| 2026-05-06 17:48 | -38.28270 | -72.19617 | 36331 ft | 327 kts | 348° |
| 2026-05-06 17:49 | -38.25999 | -72.19954 | 36776 ft | 329 kts | 349° |
| 2026-05-06 17:49 | -38.23730 | -72.20287 | 37307 ft | 327 kts | 348° |
| 2026-05-06 17:49 | -38.21477 | -72.20617 | 37867 ft | 325 kts | 348° |
| 2026-05-06 17:49 | -38.19229 | -72.20951 | 38339 ft | 326 kts | 348° |
| 2026-05-06 17:50 | -38.16973 | -72.21285 | 38753 ft | 327 kts | 348° |
| 2026-05-06 17:50 | -38.14703 | -72.21618 | 39159 ft | 328 kts | 348° |
| 2026-05-06 17:50 | -38.12428 | -72.21953 | 39566 ft | 329 kts | 348° |
| 2026-05-06 17:50 | -38.10176 | -72.22284 | 39876 ft | 333 kts | 348° |
| 2026-05-06 17:51 | -38.07797 | -72.22638 | 39884 ft | 346 kts | 348° |
| 2026-05-06 17:51 | -38.05398 | -72.22992 | 39896 ft | 358 kts | 348° |
| 2026-05-06 17:51 | -38.00313 | -72.23735 | 39916 ft | 377 kts | 348° |
| 2026-05-06 17:52 | -37.94992 | -72.24513 | 39926 ft | 392 kts | 349° |
| 2026-05-06 17:52 | -37.89482 | -72.25317 | 39934 ft | 404 kts | 349° |
| 2026-05-06 17:53 | -37.83836 | -72.26144 | 39944 ft | 412 kts | 349° |
| 2026-05-06 17:53 | -37.78091 | -72.26981 | 39947 ft | 419 kts | 349° |
| 2026-05-06 17:54 | -37.72440 | -72.27795 | 39948 ft | 396 kts | 349° |
| 2026-05-06 17:54 | -37.67033 | -72.28575 | 39946 ft | 387 kts | 350° |
| 2026-05-06 17:55 | -37.61692 | -72.28060 | 39944 ft | 391 kts | 8° |
| 2026-05-06 17:55 | -37.56437 | -72.26449 | 39956 ft | 385 kts | 8° |
| 2026-05-06 17:56 | -37.51239 | -72.24868 | 39955 ft | 382 kts | 8° |
| 2026-05-06 17:56 | -37.46096 | -72.23301 | 39953 ft | 378 kts | 7° |
| 2026-05-06 17:57 | -37.40993 | -72.21741 | 39955 ft | 376 kts | 8° |
| 2026-05-06 17:57 | -37.35915 | -72.20199 | 39955 ft | 375 kts | 7° |
| 2026-05-06 17:58 | -37.30858 | -72.18666 | 39953 ft | 373 kts | 7° |
| 2026-05-06 17:58 | -37.25851 | -72.17148 | 39953 ft | 372 kts | 7° |
| 2026-05-06 17:59 | -37.20820 | -72.15623 | 39955 ft | 371 kts | 7° |
| 2026-05-06 17:59 | -37.15799 | -72.14105 | 39954 ft | 371 kts | 7° |
| 2026-05-06 18:00 | -37.10783 | -72.12590 | 39954 ft | 370 kts | 7° |
| 2026-05-06 18:00 | -37.05765 | -72.11078 | 39956 ft | 370 kts | 7° |
| 2026-05-06 18:01 | -37.00760 | -72.09570 | 39955 ft | 370 kts | 6° |
| 2026-05-06 18:01 | -36.95755 | -72.08066 | 39955 ft | 370 kts | 6° |
| 2026-05-06 18:02 | -36.90753 | -72.06564 | 39952 ft | 370 kts | 6° |
| 2026-05-06 18:02 | -36.85752 | -72.05061 | 39954 ft | 369 kts | 6° |
| 2026-05-06 18:03 | -36.80754 | -72.03570 | 39954 ft | 369 kts | 6° |
| 2026-05-06 18:03 | -36.75765 | -72.02074 | 39953 ft | 369 kts | 6° |
| 2026-05-06 18:04 | -36.70804 | -72.00592 | 39953 ft | 368 kts | 6° |
| 2026-05-06 18:04 | -36.65815 | -71.99104 | 39953 ft | 368 kts | 5° |
| 2026-05-06 18:05 | -36.60836 | -71.97623 | 39943 ft | 368 kts | 5° |
| 2026-05-06 18:05 | -36.55859 | -71.96140 | 39943 ft | 367 kts | 5° |
| 2026-05-06 18:06 | -36.50891 | -71.94665 | 39943 ft | 367 kts | 5° |
| 2026-05-06 18:06 | -36.45925 | -71.93190 | 39942 ft | 366 kts | 5° |
| 2026-05-06 18:07 | -36.40965 | -71.91724 | 39942 ft | 366 kts | 5° |
| 2026-05-06 18:07 | -36.36011 | -71.90253 | 39941 ft | 366 kts | 5° |
| 2026-05-06 18:08 | -36.31057 | -71.88794 | 39940 ft | 366 kts | 5° |
| 2026-05-06 18:08 | -36.26102 | -71.87328 | 39939 ft | 365 kts | 5° |
| 2026-05-06 18:09 | -36.21184 | -71.85880 | 39939 ft | 366 kts | 5° |
| 2026-05-06 18:09 | -36.16233 | -71.84420 | 39939 ft | 366 kts | 5° |
| 2026-05-06 18:10 | -36.11284 | -71.82965 | 39938 ft | 365 kts | 4° |
| 2026-05-06 18:10 | -36.06337 | -71.81513 | 39938 ft | 365 kts | 4° |
| 2026-05-06 18:11 | -36.01395 | -71.80063 | 39938 ft | 365 kts | 5° |
| 2026-05-06 18:11 | -35.96453 | -71.78617 | 39938 ft | 365 kts | 4° |
| 2026-05-06 18:12 | -35.91511 | -71.77171 | 39949 ft | 365 kts | 4° |
| 2026-05-06 18:12 | -35.86579 | -71.75729 | 39947 ft | 364 kts | 4° |
| 2026-05-06 18:13 | -35.81650 | -71.74292 | 39948 ft | 364 kts | 4° |
| 2026-05-06 18:13 | -35.76723 | -71.72857 | 39956 ft | 364 kts | 4° |
| 2026-05-06 18:14 | -35.71823 | -71.71431 | 39957 ft | 365 kts | 3° |
| 2026-05-06 18:14 | -35.66877 | -71.69996 | 39957 ft | 365 kts | 4° |
| 2026-05-06 18:15 | -35.61923 | -71.68553 | 39968 ft | 366 kts | 3° |
| 2026-05-06 18:15 | -35.56963 | -71.67120 | 39969 ft | 367 kts | 3° |
| 2026-05-06 18:16 | -35.51988 | -71.65676 | 39969 ft | 368 kts | 3° |
| 2026-05-06 18:16 | -35.47007 | -71.64237 | 39975 ft | 368 kts | 3° |
| 2026-05-06 18:17 | -35.42020 | -71.62796 | 39978 ft | 368 kts | 3° |
| 2026-05-06 18:17 | -35.37030 | -71.61355 | 39982 ft | 368 kts | 3° |
| 2026-05-06 18:18 | -35.32034 | -71.59954 | 39984 ft | 366 kts | 0° |
| 2026-05-06 18:18 | -35.27070 | -71.58853 | 39984 ft | 366 kts | 1° |
| 2026-05-06 18:19 | -35.22081 | -71.57333 | 39991 ft | 370 kts | 4° |
| 2026-05-06 18:19 | -35.17079 | -71.55882 | 39992 ft | 369 kts | 2° |
| 2026-05-06 18:20 | -35.12074 | -71.54424 | 39992 ft | 370 kts | 3° |
| 2026-05-06 18:20 | -35.07059 | -71.52955 | 39985 ft | 370 kts | 3° |
| 2026-05-06 18:21 | -35.02059 | -71.51504 | 39992 ft | 369 kts | 2° |
| 2026-05-06 18:21 | -34.97056 | -71.50047 | 39991 ft | 370 kts | 2° |
| 2026-05-06 18:22 | -34.92049 | -71.48591 | 39993 ft | 370 kts | 2° |
| 2026-05-06 18:22 | -34.87034 | -71.47134 | 39994 ft | 371 kts | 2° |
| 2026-05-06 18:23 | -34.82050 | -71.45689 | 39995 ft | 370 kts | 2° |
| 2026-05-06 18:23 | -34.77037 | -71.44241 | 39994 ft | 371 kts | 2° |
| 2026-05-06 18:24 | -34.72028 | -71.42790 | 39994 ft | 370 kts | 1° |
| 2026-05-06 18:24 | -34.67018 | -71.41344 | 39992 ft | 370 kts | 2° |
| 2026-05-06 18:25 | -34.62018 | -71.39903 | 40008 ft | 370 kts | 1° |
| 2026-05-06 18:25 | -34.57011 | -71.38460 | 40008 ft | 370 kts | 1° |
| 2026-05-06 18:26 | -34.52004 | -71.37017 | 40009 ft | 370 kts | 1° |
| 2026-05-06 18:26 | -34.46998 | -71.35580 | 40010 ft | 370 kts | 1° |
| 2026-05-06 18:27 | -34.41991 | -71.34230 | 40023 ft | 364 kts | 357° |
| 2026-05-06 18:27 | -34.37022 | -71.32559 | 40021 ft | 382 kts | 12° |
| 2026-05-06 18:28 | -34.34645 | -71.31145 | 39222 ft | 385 kts | 13° |
| 2026-05-06 18:28 | -34.32132 | -71.29734 | 37524 ft | 412 kts | 14° |
| 2026-05-06 18:28 | -34.29540 | -71.28095 | 36180 ft | 433 kts | 18° |
| 2026-05-06 18:28 | -34.26961 | -71.26317 | 35648 ft | 420 kts | 17° |
| 2026-05-06 18:29 | -34.24429 | -71.24696 | 35075 ft | 405 kts | 14° |
| 2026-05-06 18:29 | -34.21947 | -71.23196 | 34524 ft | 394 kts | 14° |
| 2026-05-06 18:29 | -34.19528 | -71.21690 | 33960 ft | 389 kts | 14° |
| 2026-05-06 18:29 | -34.17160 | -71.20164 | 33390 ft | 382 kts | 15° |
| 2026-05-06 18:30 | -34.14829 | -71.18677 | 32816 ft | 376 kts | 14° |
| 2026-05-06 18:30 | -34.12521 | -71.17232 | 32241 ft | 371 kts | 13° |
| 2026-05-06 18:30 | -34.10238 | -71.15803 | 31663 ft | 367 kts | 13° |
| 2026-05-06 18:30 | -34.07984 | -71.14376 | 31091 ft | 363 kts | 13° |
| 2026-05-06 18:31 | -34.05755 | -71.12968 | 30510 ft | 359 kts | 13° |
| 2026-05-06 18:31 | -34.03552 | -71.11584 | 29932 ft | 356 kts | 13° |
| 2026-05-06 18:31 | -34.02108 | -71.10677 | 29552 ft | 352 kts | 12° |
| 2026-05-06 18:31 | -33.99945 | -71.09319 | 28978 ft | 349 kts | 13° |
| 2026-05-06 18:32 | -33.97821 | -71.07865 | 28394 ft | 357 kts | 20° |
| 2026-05-06 18:32 | -33.95847 | -71.05966 | 27813 ft | 369 kts | 30° |
| 2026-05-06 18:32 | -33.94062 | -71.03699 | 27239 ft | 373 kts | 36° |
| 2026-05-06 18:32 | -33.91720 | -71.00686 | 26485 ft | 370 kts | 35° |
| 2026-05-06 18:33 | -33.89959 | -70.98435 | 25907 ft | 369 kts | 36° |
| 2026-05-06 18:33 | -33.88775 | -70.96917 | 25502 ft | 367 kts | 36° |
| 2026-05-06 18:33 | -33.87050 | -70.94699 | 24928 ft | 362 kts | 36° |
| 2026-05-06 18:33 | -33.85327 | -70.92488 | 24125 ft | 366 kts | 37° |
| 2026-05-06 18:34 | -33.83559 | -70.90231 | 22972 ft | 378 kts | 38° |
| 2026-05-06 18:34 | -33.81744 | -70.87910 | 21727 ft | 387 kts | 39° |
| 2026-05-06 18:34 | -33.79943 | -70.85461 | 20478 ft | 398 kts | 48° |
| 2026-05-06 18:34 | -33.78789 | -70.82414 | 19218 ft | 414 kts | 71° |
| 2026-05-06 18:35 | -33.78304 | -70.78992 | 17971 ft | 416 kts | 81° |
| 2026-05-06 18:35 | -33.78033 | -70.75557 | 16837 ft | 407 kts | 83° |
| 2026-05-06 18:35 | -33.77832 | -70.72112 | 15100 ft | 415 kts | 84° |
| 2026-05-06 18:35 | -33.77643 | -70.68639 | 13461 ft | 416 kts | 85° |
| 2026-05-06 18:36 | -33.77456 | -70.65256 | 12575 ft | 393 kts | 85° |
| 2026-05-06 18:36 | -33.76974 | -70.62148 | 11762 ft | 370 kts | 67° |
| 2026-05-06 18:36 | -33.75711 | -70.59745 | 10970 ft | 347 kts | 44° |
| 2026-05-06 18:36 | -33.73798 | -70.58172 | 10147 ft | 325 kts | 20° |
| 2026-05-06 18:37 | -33.71641 | -70.57719 | 9334 ft | 309 kts | 355° |
| 2026-05-06 18:37 | -33.69635 | -70.58413 | 8514 ft | 297 kts | 329° |
| 2026-05-06 18:37 | -33.68178 | -70.60074 | 7785 ft | 286 kts | 302° |
| 2026-05-06 18:37 | -33.67429 | -70.62216 | 7233 ft | 273 kts | 288° |
| 2026-05-06 18:38 | -33.66893 | -70.64361 | 6680 ft | 263 kts | 287° |
| 2026-05-06 18:38 | -33.66081 | -70.66268 | 6106 ft | 255 kts | 306° |
| 2026-05-06 18:38 | -33.65022 | -70.67908 | 5564 ft | 249 kts | 306° |
| 2026-05-06 18:38 | -33.64003 | -70.69561 | 5107 ft | 242 kts | 307° |
| 2026-05-06 18:39 | -33.63016 | -70.71067 | 5092 ft | 218 kts | 307° |
| 2026-05-06 18:39 | -33.62140 | -70.72452 | 5091 ft | 199 kts | 306° |
| 2026-05-06 18:39 | -33.61332 | -70.73721 | 5093 ft | 189 kts | 307° |
| 2026-05-06 18:40 | -33.59359 | -70.76426 | 5091 ft | 237 kts | 324° |
| 2026-05-06 18:40 | -33.57908 | -70.77332 | 4957 ft | 238 kts | 337° |
| 2026-05-06 18:40 | -33.56267 | -70.77672 | 4623 ft | 238 kts | 355° |
| 2026-05-06 18:40 | -33.54645 | -70.77750 | 4308 ft | 228 kts | 354° |
| 2026-05-06 18:41 | -33.53073 | -70.77840 | 3996 ft | 225 kts | 355° |
| 2026-05-06 18:41 | -33.51526 | -70.77919 | 3708 ft | 219 kts | 355° |
| 2026-05-06 18:41 | -33.50015 | -70.78004 | 3419 ft | 215 kts | 354° |
| 2026-05-06 18:41 | -33.48533 | -70.78083 | 3133 ft | 211 kts | 355° |
| 2026-05-06 18:42 | -33.47116 | -70.78154 | 2868 ft | 197 kts | 354° |
| 2026-05-06 18:42 | -33.45781 | -70.78236 | 2611 ft | 184 kts | 356° |
| 2026-05-06 18:42 | -33.44584 | -70.78298 | 2374 ft | 166 kts | 358° |
| 2026-05-06 18:42 | -33.43510 | -70.78357 | 2185 ft | 139 kts | 0° |
| 2026-05-06 18:43 | -33.42622 | -70.78409 | 1995 ft | 121 kts | 0° |
| 2026-05-06 18:43 | -33.41739 | -70.78461 | 1875 ft | 131 kts | 1° |
| 2026-05-06 18:43 | -33.40827 | -70.78498 | 1694 ft | 131 kts | 0° |
| 2026-05-06 18:43 | -33.39953 | -70.78544 | 1565 ft | 116 kts | 359° |
| 2026-05-06 18:44 | -33.39285 | -70.78577 | 1559 ft | 71 kts | 356° |
| 2026-05-06 18:44 | -33.38920 | -70.78597 | 1560 ft | 42 kts | 359° |
| 2026-05-06 18:44 | -33.38714 | -70.78627 | 1558 ft | 22 kts | 335° |
| 2026-05-06 18:44 | -33.38573 | -70.78710 | 1559 ft | 23 kts | 328° |
| 2026-05-06 18:45 | -33.38439 | -70.78814 | 1559 ft | 23 kts | 327° |